sensor_id;sensor_type;location;lat;lon;timestamp;P1;durP1;ratioP1;P2;durP2;ratioP2
11305;SDS011;5708;50.660;6.778;2022-11-15T00:01:54;10.35;;;5.80;;
11305;SDS011;5708;50.660;6.778;2022-11-15T00:04:20;14.43;;;5.90;;
11305;SDS011;5708;50.660;6.778;2022-11-15T00:06:45;10.48;;;5.82;;
11305;SDS011;5708;50.660;6.778;2022-11-15T00:09:10;11.35;;;6.05;;
11305;SDS011;5708;50.660;6.778;2022-11-15T00:11:36;10.35;;;6.00;;
11305;SDS011;5708;50.660;6.778;2022-11-15T00:14:01;11.70;;;6.32;;
11305;SDS011;5708;50.660;6.778;2022-11-15T00:16:29;12.82;;;6.15;;
11305;SDS011;5708;50.660;6.778;2022-11-15T00:18:54;10.80;;;6.40;;
11305;SDS011;5708;50.660;6.778;2022-11-15T00:21:20;13.50;;;6.85;;
11305;SDS011;5708;50.660;6.778;2022-11-15T00:23:45;13.18;;;6.85;;
11305;SDS011;5708;50.660;6.778;2022-11-15T00:26:11;11.27;;;6.72;;
11305;SDS011;5708;50.660;6.778;2022-11-15T00:28:38;12.50;;;7.13;;
11305;SDS011;5708;50.660;6.778;2022-11-15T00:31:04;14.30;;;7.60;;
11305;SDS011;5708;50.660;6.778;2022-11-15T00:33:31;11.85;;;6.68;;
11305;SDS011;5708;50.660;6.778;2022-11-15T00:36:03;14.63;;;7.25;;
11305;SDS011;5708;50.660;6.778;2022-11-15T00:38:31;13.88;;;8.85;;
11305;SDS011;5708;50.660;6.778;2022-11-15T00:40:57;15.98;;;8.50;;
11305;SDS011;5708;50.660;6.778;2022-11-15T00:43:23;13.07;;;7.82;;
11305;SDS011;5708;50.660;6.778;2022-11-15T00:45:48;13.85;;;7.78;;
11305;SDS011;5708;50.660;6.778;2022-11-15T00:48:13;14.65;;;7.93;;
11305;SDS011;5708;50.660;6.778;2022-11-15T00:50:39;14.30;;;7.78;;
11305;SDS011;5708;50.660;6.778;2022-11-15T00:53:04;13.50;;;7.63;;
11305;SDS011;5708;50.660;6.778;2022-11-15T00:55:29;14.27;;;8.10;;
11305;SDS011;5708;50.660;6.778;2022-11-15T00:57:55;12.15;;;7.68;;
11305;SDS011;5708;50.660;6.778;2022-11-15T01:00:20;12.68;;;8.73;;
11305;SDS011;5708;50.660;6.778;2022-11-15T01:02:45;15.23;;;8.20;;
11305;SDS011;5708;50.660;6.778;2022-11-15T01:05:10;14.18;;;8.00;;
11305;SDS011;5708;50.660;6.778;2022-11-15T01:07:36;14.00;;;8.30;;
11305;SDS011;5708;50.660;6.778;2022-11-15T01:10:01;13.57;;;8.30;;
11305;SDS011;5708;50.660;6.778;2022-11-15T01:12:27;13.45;;;8.40;;
11305;SDS011;5708;50.660;6.778;2022-11-15T01:14:54;12.40;;;8.35;;
11305;SDS011;5708;50.660;6.778;2022-11-15T01:17:19;13.60;;;8.30;;
11305;SDS011;5708;50.660;6.778;2022-11-15T01:19:44;12.98;;;7.65;;
11305;SDS011;5708;50.660;6.778;2022-11-15T01:22:09;12.02;;;8.27;;
11305;SDS011;5708;50.660;6.778;2022-11-15T01:24:35;12.45;;;7.68;;
11305;SDS011;5708;50.660;6.778;2022-11-15T01:27:00;13.93;;;7.45;;
11305;SDS011;5708;50.660;6.778;2022-11-15T01:29:25;13.35;;;8.05;;
11305;SDS011;5708;50.660;6.778;2022-11-15T01:31:52;12.07;;;7.93;;
11305;SDS011;5708;50.660;6.778;2022-11-15T01:34:18;10.35;;;6.93;;
11305;SDS011;5708;50.660;6.778;2022-11-15T01:36:43;11.55;;;7.35;;
11305;SDS011;5708;50.660;6.778;2022-11-15T01:39:08;12.30;;;7.65;;
11305;SDS011;5708;50.660;6.778;2022-11-15T01:41:34;10.38;;;6.65;;
11305;SDS011;5708;50.660;6.778;2022-11-15T01:46:55;12.98;;;6.90;;
11305;SDS011;5708;50.660;6.778;2022-11-15T01:49:21;9.85;;;6.78;;
11305;SDS011;5708;50.660;6.778;2022-11-15T01:51:47;10.75;;;6.60;;
11305;SDS011;5708;50.660;6.778;2022-11-15T01:54:15;11.85;;;6.53;;
11305;SDS011;5708;50.660;6.778;2022-11-15T01:56:45;11.48;;;7.32;;
11305;SDS011;5708;50.660;6.778;2022-11-15T01:59:14;10.00;;;6.72;;
11305;SDS011;5708;50.660;6.778;2022-11-15T02:01:39;12.00;;;6.60;;
11305;SDS011;5708;50.660;6.778;2022-11-15T02:04:13;10.48;;;6.53;;
11305;SDS011;5708;50.660;6.778;2022-11-15T02:06:40;9.93;;;6.68;;
11305;SDS011;5708;50.660;6.778;2022-11-15T02:09:06;8.52;;;5.97;;
11305;SDS011;5708;50.660;6.778;2022-11-15T02:11:31;11.77;;;6.47;;
11305;SDS011;5708;50.660;6.778;2022-11-15T02:13:57;10.38;;;5.95;;
11305;SDS011;5708;50.660;6.778;2022-11-15T02:18:54;12.40;;;5.65;;
11305;SDS011;5708;50.660;6.778;2022-11-15T02:21:28;8.02;;;5.15;;
11305;SDS011;5708;50.660;6.778;2022-11-15T02:32:27;6.90;;;4.00;;
11305;SDS011;5708;50.660;6.778;2022-11-15T02:35:44;8.02;;;4.07;;
11305;SDS011;5708;50.660;6.778;2022-11-15T02:37:55;5.97;;;4.00;;
11305;SDS011;5708;50.660;6.778;2022-11-15T02:43:43;6.85;;;4.03;;
11305;SDS011;5708;50.660;6.778;2022-11-15T02:46:32;6.53;;;4.32;;
11305;SDS011;5708;50.660;6.778;2022-11-15T02:49:21;5.82;;;3.75;;
11305;SDS011;5708;50.660;6.778;2022-11-15T02:51:47;6.60;;;4.22;;
11305;SDS011;5708;50.660;6.778;2022-11-15T02:54:15;6.60;;;3.80;;
11305;SDS011;5708;50.660;6.778;2022-11-15T02:56:44;6.80;;;3.83;;
11305;SDS011;5708;50.660;6.778;2022-11-15T02:59:18;7.78;;;3.50;;
11305;SDS011;5708;50.660;6.778;2022-11-15T03:04:30;6.22;;;3.53;;
11305;SDS011;5708;50.660;6.778;2022-11-15T03:06:58;5.55;;;3.30;;
11305;SDS011;5708;50.660;6.778;2022-11-15T03:12:00;4.53;;;2.80;;
11305;SDS011;5708;50.660;6.778;2022-11-15T03:14:40;4.95;;;2.90;;
11305;SDS011;5708;50.660;6.778;2022-11-15T03:17:16;5.50;;;3.08;;
11305;SDS011;5708;50.660;6.778;2022-11-15T03:20:04;5.63;;;3.10;;
11305;SDS011;5708;50.660;6.778;2022-11-15T03:22:33;5.60;;;2.92;;
11305;SDS011;5708;50.660;6.778;2022-11-15T03:25:02;4.65;;;2.88;;
11305;SDS011;5708;50.660;6.778;2022-11-15T03:27:31;4.88;;;3.08;;
11305;SDS011;5708;50.660;6.778;2022-11-15T03:30:00;4.00;;;2.58;;
11305;SDS011;5708;50.660;6.778;2022-11-15T03:32:30;4.13;;;2.60;;
11305;SDS011;5708;50.660;6.778;2022-11-15T03:37:29;4.97;;;3.00;;
11305;SDS011;5708;50.660;6.778;2022-11-15T03:39:57;5.43;;;2.63;;
11305;SDS011;5708;50.660;6.778;2022-11-15T03:45:17;4.72;;;2.95;;
11305;SDS011;5708;50.660;6.778;2022-11-15T03:47:46;5.22;;;3.15;;
11305;SDS011;5708;50.660;6.778;2022-11-15T03:50:18;6.05;;;3.22;;
11305;SDS011;5708;50.660;6.778;2022-11-15T03:52:45;7.45;;;3.42;;
11305;SDS011;5708;50.660;6.778;2022-11-15T03:55:13;5.78;;;3.20;;
11305;SDS011;5708;50.660;6.778;2022-11-15T03:57:41;6.68;;;3.25;;
11305;SDS011;5708;50.660;6.778;2022-11-15T04:00:07;4.15;;;2.78;;
11305;SDS011;5708;50.660;6.778;2022-11-15T04:02:33;4.75;;;2.70;;
11305;SDS011;5708;50.660;6.778;2022-11-15T04:04:58;6.13;;;2.83;;
11305;SDS011;5708;50.660;6.778;2022-11-15T04:07:23;3.78;;;2.38;;
11305;SDS011;5708;50.660;6.778;2022-11-15T04:09:49;3.75;;;2.22;;
11305;SDS011;5708;50.660;6.778;2022-11-15T04:12:34;3.83;;;2.22;;
11305;SDS011;5708;50.660;6.778;2022-11-15T04:15:08;2.85;;;1.85;;
11305;SDS011;5708;50.660;6.778;2022-11-15T04:17:39;4.10;;;1.85;;
11305;SDS011;5708;50.660;6.778;2022-11-15T04:20:07;3.65;;;1.70;;
11305;SDS011;5708;50.660;6.778;2022-11-15T04:22:52;2.58;;;1.58;;
11305;SDS011;5708;50.660;6.778;2022-11-15T04:25:37;2.53;;;1.65;;
11305;SDS011;5708;50.660;6.778;2022-11-15T04:28:02;3.35;;;1.70;;
11305;SDS011;5708;50.660;6.778;2022-11-15T04:30:28;3.17;;;1.85;;
11305;SDS011;5708;50.660;6.778;2022-11-15T04:32:53;2.70;;;1.70;;
11305;SDS011;5708;50.660;6.778;2022-11-15T04:35:18;3.22;;;1.67;;
11305;SDS011;5708;50.660;6.778;2022-11-15T04:37:44;1.98;;;1.50;;
11305;SDS011;5708;50.660;6.778;2022-11-15T04:40:09;2.67;;;1.80;;
11305;SDS011;5708;50.660;6.778;2022-11-15T04:42:34;2.90;;;1.67;;
11305;SDS011;5708;50.660;6.778;2022-11-15T04:45:00;3.08;;;1.88;;
11305;SDS011;5708;50.660;6.778;2022-11-15T04:47:25;4.00;;;1.70;;
11305;SDS011;5708;50.660;6.778;2022-11-15T04:49:52;3.67;;;1.95;;
11305;SDS011;5708;50.660;6.778;2022-11-15T04:52:17;3.35;;;1.90;;
11305;SDS011;5708;50.660;6.778;2022-11-15T04:54:43;2.45;;;1.50;;
11305;SDS011;5708;50.660;6.778;2022-11-15T04:57:08;2.95;;;1.55;;
11305;SDS011;5708;50.660;6.778;2022-11-15T04:59:33;3.47;;;1.55;;
11305;SDS011;5708;50.660;6.778;2022-11-15T05:01:59;3.30;;;1.90;;
11305;SDS011;5708;50.660;6.778;2022-11-15T05:04:24;2.97;;;1.80;;
11305;SDS011;5708;50.660;6.778;2022-11-15T05:06:50;3.33;;;1.80;;
11305;SDS011;5708;50.660;6.778;2022-11-15T05:09:16;3.47;;;1.90;;
11305;SDS011;5708;50.660;6.778;2022-11-15T05:11:44;4.18;;;2.00;;
11305;SDS011;5708;50.660;6.778;2022-11-15T05:14:10;3.38;;;2.03;;
11305;SDS011;5708;50.660;6.778;2022-11-15T05:16:35;7.47;;;2.20;;
11305;SDS011;5708;50.660;6.778;2022-11-15T05:19:01;4.57;;;1.65;;
11305;SDS011;5708;50.660;6.778;2022-11-15T05:21:27;3.28;;;1.50;;
11305;SDS011;5708;50.660;6.778;2022-11-15T05:23:52;2.70;;;1.52;;
11305;SDS011;5708;50.660;6.778;2022-11-15T05:26:18;2.80;;;1.52;;
11305;SDS011;5708;50.660;6.778;2022-11-15T05:28:43;3.58;;;1.67;;
11305;SDS011;5708;50.660;6.778;2022-11-15T05:31:12;3.08;;;1.55;;
11305;SDS011;5708;50.660;6.778;2022-11-15T05:33:39;2.92;;;1.77;;
11305;SDS011;5708;50.660;6.778;2022-11-15T05:36:13;2.50;;;1.42;;
11305;SDS011;5708;50.660;6.778;2022-11-15T05:38:49;2.75;;;1.60;;
11305;SDS011;5708;50.660;6.778;2022-11-15T05:41:15;5.70;;;1.90;;
11305;SDS011;5708;50.660;6.778;2022-11-15T05:43:42;1.92;;;1.45;;
11305;SDS011;5708;50.660;6.778;2022-11-15T05:46:08;4.50;;;2.00;;
11305;SDS011;5708;50.660;6.778;2022-11-15T05:48:34;2.70;;;1.50;;
11305;SDS011;5708;50.660;6.778;2022-11-15T05:51:01;3.30;;;1.50;;
11305;SDS011;5708;50.660;6.778;2022-11-15T05:53:27;2.42;;;1.65;;
11305;SDS011;5708;50.660;6.778;2022-11-15T05:55:53;4.70;;;1.98;;
11305;SDS011;5708;50.660;6.778;2022-11-15T05:58:18;5.65;;;1.63;;
11305;SDS011;5708;50.660;6.778;2022-11-15T06:00:44;6.97;;;2.15;;
11305;SDS011;5708;50.660;6.778;2022-11-15T06:03:09;6.00;;;2.20;;
11305;SDS011;5708;50.660;6.778;2022-11-15T06:05:35;3.38;;;1.95;;
11305;SDS011;5708;50.660;6.778;2022-11-15T06:08:00;5.32;;;2.08;;
11305;SDS011;5708;50.660;6.778;2022-11-15T06:10:26;3.15;;;1.95;;
11305;SDS011;5708;50.660;6.778;2022-11-15T06:12:58;6.10;;;2.13;;
11305;SDS011;5708;50.660;6.778;2022-11-15T06:15:24;5.00;;;2.25;;
11305;SDS011;5708;50.660;6.778;2022-11-15T06:17:49;5.22;;;2.17;;
11305;SDS011;5708;50.660;6.778;2022-11-15T06:20:14;4.65;;;2.00;;
11305;SDS011;5708;50.660;6.778;2022-11-15T06:22:40;5.28;;;2.10;;
11305;SDS011;5708;50.660;6.778;2022-11-15T06:25:05;5.45;;;2.55;;
11305;SDS011;5708;50.660;6.778;2022-11-15T06:27:30;4.60;;;2.08;;
11305;SDS011;5708;50.660;6.778;2022-11-15T06:29:56;3.03;;;1.95;;
11305;SDS011;5708;50.660;6.778;2022-11-15T06:32:21;4.47;;;2.08;;
11305;SDS011;5708;50.660;6.778;2022-11-15T06:34:46;8.10;;;1.98;;
11305;SDS011;5708;50.660;6.778;2022-11-15T06:37:12;7.57;;;1.92;;
11305;SDS011;5708;50.660;6.778;2022-11-15T06:39:37;3.83;;;1.98;;
11305;SDS011;5708;50.660;6.778;2022-11-15T06:42:02;3.05;;;1.85;;
11305;SDS011;5708;50.660;6.778;2022-11-15T06:44:28;6.00;;;2.30;;
11305;SDS011;5708;50.660;6.778;2022-11-15T06:46:53;3.38;;;1.80;;
11305;SDS011;5708;50.660;6.778;2022-11-15T06:49:18;3.65;;;1.58;;
11305;SDS011;5708;50.660;6.778;2022-11-15T06:51:43;3.67;;;1.88;;
11305;SDS011;5708;50.660;6.778;2022-11-15T06:54:09;3.40;;;1.80;;
11305;SDS011;5708;50.660;6.778;2022-11-15T06:56:34;5.22;;;2.20;;
11305;SDS011;5708;50.660;6.778;2022-11-15T06:58:59;3.53;;;1.90;;
11305;SDS011;5708;50.660;6.778;2022-11-15T07:01:25;5.35;;;2.00;;
11305;SDS011;5708;50.660;6.778;2022-11-15T07:03:50;4.15;;;1.95;;
11305;SDS011;5708;50.660;6.778;2022-11-15T07:06:15;4.30;;;2.00;;
11305;SDS011;5708;50.660;6.778;2022-11-15T07:08:41;6.80;;;1.90;;
11305;SDS011;5708;50.660;6.778;2022-11-15T07:11:07;4.25;;;1.70;;
11305;SDS011;5708;50.660;6.778;2022-11-15T07:13:33;4.63;;;2.20;;
11305;SDS011;5708;50.660;6.778;2022-11-15T07:16:06;3.95;;;2.00;;
11305;SDS011;5708;50.660;6.778;2022-11-15T07:18:33;5.20;;;1.83;;
11305;SDS011;5708;50.660;6.778;2022-11-15T07:21:00;3.00;;;1.63;;
11305;SDS011;5708;50.660;6.778;2022-11-15T07:23:27;3.40;;;1.75;;
11305;SDS011;5708;50.660;6.778;2022-11-15T07:25:52;3.25;;;1.65;;
11305;SDS011;5708;50.660;6.778;2022-11-15T07:28:17;4.20;;;1.60;;
11305;SDS011;5708;50.660;6.778;2022-11-15T07:30:42;4.35;;;2.08;;
11305;SDS011;5708;50.660;6.778;2022-11-15T07:33:08;3.97;;;1.85;;
11305;SDS011;5708;50.660;6.778;2022-11-15T07:35:33;3.58;;;1.77;;
11305;SDS011;5708;50.660;6.778;2022-11-15T07:37:59;5.30;;;1.80;;
11305;SDS011;5708;50.660;6.778;2022-11-15T07:40:26;2.55;;;1.45;;
11305;SDS011;5708;50.660;6.778;2022-11-15T07:42:52;3.50;;;1.50;;
11305;SDS011;5708;50.660;6.778;2022-11-15T07:45:24;4.15;;;1.50;;
11305;SDS011;5708;50.660;6.778;2022-11-15T07:47:52;3.15;;;1.55;;
11305;SDS011;5708;50.660;6.778;2022-11-15T07:50:17;5.57;;;1.50;;
11305;SDS011;5708;50.660;6.778;2022-11-15T07:52:43;3.83;;;1.58;;
11305;SDS011;5708;50.660;6.778;2022-11-15T07:55:09;5.20;;;1.75;;
11305;SDS011;5708;50.660;6.778;2022-11-15T07:57:34;3.53;;;1.52;;
11305;SDS011;5708;50.660;6.778;2022-11-15T08:00:00;3.90;;;2.08;;
11305;SDS011;5708;50.660;6.778;2022-11-15T08:02:25;4.65;;;2.17;;
11305;SDS011;5708;50.660;6.778;2022-11-15T08:04:50;9.20;;;1.63;;
11305;SDS011;5708;50.660;6.778;2022-11-15T08:07:16;6.32;;;1.52;;
11305;SDS011;5708;50.660;6.778;2022-11-15T08:09:41;7.63;;;1.88;;
11305;SDS011;5708;50.660;6.778;2022-11-15T08:12:06;10.35;;;1.45;;
11305;SDS011;5708;50.660;6.778;2022-11-15T08:14:32;5.65;;;1.27;;
11305;SDS011;5708;50.660;6.778;2022-11-15T08:16:57;20.60;;;2.05;;
11305;SDS011;5708;50.660;6.778;2022-11-15T08:19:23;6.32;;;1.70;;
11305;SDS011;5708;50.660;6.778;2022-11-15T08:21:48;5.68;;;1.30;;
11305;SDS011;5708;50.660;6.778;2022-11-15T08:24:13;2.50;;;1.17;;
11305;SDS011;5708;50.660;6.778;2022-11-15T08:26:39;5.10;;;1.17;;
11305;SDS011;5708;50.660;6.778;2022-11-15T08:29:04;6.38;;;1.60;;
11305;SDS011;5708;50.660;6.778;2022-11-15T08:31:30;5.45;;;1.70;;
11305;SDS011;5708;50.660;6.778;2022-11-15T08:33:55;6.47;;;1.45;;
11305;SDS011;5708;50.660;6.778;2022-11-15T08:36:21;15.65;;;1.60;;
11305;SDS011;5708;50.660;6.778;2022-11-15T08:38:46;7.97;;;1.27;;
11305;SDS011;5708;50.660;6.778;2022-11-15T08:41:28;6.28;;;1.23;;
11305;SDS011;5708;50.660;6.778;2022-11-15T08:43:56;3.30;;;0.95;;
11305;SDS011;5708;50.660;6.778;2022-11-15T08:46:21;2.42;;;1.13;;
11305;SDS011;5708;50.660;6.778;2022-11-15T08:48:47;4.20;;;1.02;;
11305;SDS011;5708;50.660;6.778;2022-11-15T08:51:12;6.43;;;1.20;;
11305;SDS011;5708;50.660;6.778;2022-11-15T08:53:37;4.40;;;0.90;;
11305;SDS011;5708;50.660;6.778;2022-11-15T08:56:03;6.82;;;1.20;;
11305;SDS011;5708;50.660;6.778;2022-11-15T08:58:32;5.82;;;1.13;;
11305;SDS011;5708;50.660;6.778;2022-11-15T09:00:57;7.75;;;1.45;;
11305;SDS011;5708;50.660;6.778;2022-11-15T09:03:23;9.85;;;1.38;;
11305;SDS011;5708;50.660;6.778;2022-11-15T09:05:48;4.32;;;1.00;;
11305;SDS011;5708;50.660;6.778;2022-11-15T09:08:13;9.13;;;1.60;;
11305;SDS011;5708;50.660;6.778;2022-11-15T09:10:39;9.45;;;1.20;;
11305;SDS011;5708;50.660;6.778;2022-11-15T09:13:04;3.25;;;1.00;;
11305;SDS011;5708;50.660;6.778;2022-11-15T09:15:29;6.40;;;0.82;;
11305;SDS011;5708;50.660;6.778;2022-11-15T09:17:57;2.63;;;1.10;;
11305;SDS011;5708;50.660;6.778;2022-11-15T09:20:23;3.65;;;0.70;;
11305;SDS011;5708;50.660;6.778;2022-11-15T09:22:49;4.85;;;1.30;;
11305;SDS011;5708;50.660;6.778;2022-11-15T09:25:14;4.65;;;1.08;;
11305;SDS011;5708;50.660;6.778;2022-11-15T09:27:39;9.20;;;1.48;;
11305;SDS011;5708;50.660;6.778;2022-11-15T09:30:05;4.70;;;1.00;;
11305;SDS011;5708;50.660;6.778;2022-11-15T09:32:30;5.97;;;1.25;;
11305;SDS011;5708;50.660;6.778;2022-11-15T09:34:56;3.92;;;1.08;;
11305;SDS011;5708;50.660;6.778;2022-11-15T09:37:22;2.70;;;0.70;;
11305;SDS011;5708;50.660;6.778;2022-11-15T09:39:47;4.60;;;1.40;;
11305;SDS011;5708;50.660;6.778;2022-11-15T09:42:22;5.45;;;1.00;;
11305;SDS011;5708;50.660;6.778;2022-11-15T09:50:31;5.72;;;1.10;;
11305;SDS011;5708;50.660;6.778;2022-11-15T09:53:23;7.10;;;1.00;;
11305;SDS011;5708;50.660;6.778;2022-11-15T09:56:14;3.30;;;0.85;;
11305;SDS011;5708;50.660;6.778;2022-11-15T09:58:45;1.65;;;0.57;;
11305;SDS011;5708;50.660;6.778;2022-11-15T10:01:32;6.82;;;1.00;;
11305;SDS011;5708;50.660;6.778;2022-11-15T10:04:14;3.03;;;1.02;;
11305;SDS011;5708;50.660;6.778;2022-11-15T10:06:42;2.80;;;0.90;;
11305;SDS011;5708;50.660;6.778;2022-11-15T10:09:15;5.15;;;1.08;;
11305;SDS011;5708;50.660;6.778;2022-11-15T10:11:51;8.55;;;1.00;;
11305;SDS011;5708;50.660;6.778;2022-11-15T10:14:18;3.42;;;0.82;;
11305;SDS011;5708;50.660;6.778;2022-11-15T10:20:01;11.90;;;0.85;;
11305;SDS011;5708;50.660;6.778;2022-11-15T10:22:34;2.95;;;1.00;;
11305;SDS011;5708;50.660;6.778;2022-11-15T10:27:53;5.82;;;1.02;;
11305;SDS011;5708;50.660;6.778;2022-11-15T10:30:20;9.05;;;1.33;;
11305;SDS011;5708;50.660;6.778;2022-11-15T10:32:46;5.75;;;1.20;;
11305;SDS011;5708;50.660;6.778;2022-11-15T10:35:25;4.32;;;0.95;;
11305;SDS011;5708;50.660;6.778;2022-11-15T10:38:06;3.70;;;0.90;;
11305;SDS011;5708;50.660;6.778;2022-11-15T10:40:32;4.20;;;0.80;;
11305;SDS011;5708;50.660;6.778;2022-11-15T10:45:35;4.53;;;0.70;;
11305;SDS011;5708;50.660;6.778;2022-11-15T10:48:18;6.38;;;1.33;;
11305;SDS011;5708;50.660;6.778;2022-11-15T10:50:46;5.57;;;1.15;;
11305;SDS011;5708;50.660;6.778;2022-11-15T10:53:15;6.65;;;1.10;;
11305;SDS011;5708;50.660;6.778;2022-11-15T10:55:49;1.85;;;0.68;;
11305;SDS011;5708;50.660;6.778;2022-11-15T11:00:53;4.32;;;0.90;;
11305;SDS011;5708;50.660;6.778;2022-11-15T11:03:34;2.70;;;0.85;;
11305;SDS011;5708;50.660;6.778;2022-11-15T11:06:11;2.72;;;0.70;;
11305;SDS011;5708;50.660;6.778;2022-11-15T11:08:38;3.15;;;0.70;;
11305;SDS011;5708;50.660;6.778;2022-11-15T11:11:04;5.78;;;0.98;;
11305;SDS011;5708;50.660;6.778;2022-11-15T11:13:37;5.85;;;1.10;;
11305;SDS011;5708;50.660;6.778;2022-11-15T11:16:09;6.32;;;1.13;;
11305;SDS011;5708;50.660;6.778;2022-11-15T11:21:14;5.43;;;1.15;;
11305;SDS011;5708;50.660;6.778;2022-11-15T11:23:47;4.60;;;1.10;;
11305;SDS011;5708;50.660;6.778;2022-11-15T11:26:34;4.65;;;0.90;;
11305;SDS011;5708;50.660;6.778;2022-11-15T11:29:12;4.80;;;1.05;;
11305;SDS011;5708;50.660;6.778;2022-11-15T11:34:57;4.45;;;1.20;;
11305;SDS011;5708;50.660;6.778;2022-11-15T11:37:50;3.20;;;1.05;;
11305;SDS011;5708;50.660;6.778;2022-11-15T11:40:34;5.35;;;1.15;;
11305;SDS011;5708;50.660;6.778;2022-11-15T11:45:43;5.10;;;1.20;;
11305;SDS011;5708;50.660;6.778;2022-11-15T11:48:13;5.43;;;1.00;;
11305;SDS011;5708;50.660;6.778;2022-11-15T11:50:39;5.13;;;0.98;;
11305;SDS011;5708;50.660;6.778;2022-11-15T11:53:11;7.70;;;1.20;;
11305;SDS011;5708;50.660;6.778;2022-11-15T11:55:45;4.43;;;1.52;;
11305;SDS011;5708;50.660;6.778;2022-11-15T11:58:14;3.55;;;1.35;;
11305;SDS011;5708;50.660;6.778;2022-11-15T12:00:43;5.57;;;1.10;;
11305;SDS011;5708;50.660;6.778;2022-11-15T12:03:35;3.55;;;0.93;;
11305;SDS011;5708;50.660;6.778;2022-11-15T12:08:53;3.63;;;1.38;;
11305;SDS011;5708;50.660;6.778;2022-11-15T12:13:50;3.65;;;1.13;;
11305;SDS011;5708;50.660;6.778;2022-11-15T12:16:17;4.45;;;1.30;;
11305;SDS011;5708;50.660;6.778;2022-11-15T12:18:49;4.65;;;1.50;;
11305;SDS011;5708;50.660;6.778;2022-11-15T12:21:19;3.22;;;1.20;;
11305;SDS011;5708;50.660;6.778;2022-11-15T12:23:50;5.80;;;1.30;;
11305;SDS011;5708;50.660;6.778;2022-11-15T12:26:19;6.70;;;1.45;;
11305;SDS011;5708;50.660;6.778;2022-11-15T12:28:52;4.22;;;1.33;;
11305;SDS011;5708;50.660;6.778;2022-11-15T12:31:22;8.00;;;2.05;;
11305;SDS011;5708;50.660;6.778;2022-11-15T12:33:49;4.55;;;1.40;;
11305;SDS011;5708;50.660;6.778;2022-11-15T12:41:41;4.25;;;1.52;;
11305;SDS011;5708;50.660;6.778;2022-11-15T12:44:11;3.35;;;1.20;;
11305;SDS011;5708;50.660;6.778;2022-11-15T12:49:10;3.63;;;1.50;;
11305;SDS011;5708;50.660;6.778;2022-11-15T12:57:22;6.50;;;1.48;;
11305;SDS011;5708;50.660;6.778;2022-11-15T13:02:40;4.57;;;1.65;;
11305;SDS011;5708;50.660;6.778;2022-11-15T13:17:37;2.80;;;1.40;;
11305;SDS011;5708;50.660;6.778;2022-11-15T13:22:39;5.15;;;1.63;;
11305;SDS011;5708;50.660;6.778;2022-11-15T13:33:51;5.50;;;2.30;;
11305;SDS011;5708;50.660;6.778;2022-11-15T13:36:25;5.90;;;2.40;;
11305;SDS011;5708;50.660;6.778;2022-11-15T13:38:54;6.40;;;2.20;;
11305;SDS011;5708;50.660;6.778;2022-11-15T13:41:26;4.70;;;1.98;;
11305;SDS011;5708;50.660;6.778;2022-11-15T13:43:53;4.10;;;2.10;;
11305;SDS011;5708;50.660;6.778;2022-11-15T13:46:20;4.95;;;2.00;;
11305;SDS011;5708;50.660;6.778;2022-11-15T13:48:51;5.88;;;2.25;;
11305;SDS011;5708;50.660;6.778;2022-11-15T13:51:23;4.20;;;2.10;;
11305;SDS011;5708;50.660;6.778;2022-11-15T13:53:55;4.20;;;1.90;;
11305;SDS011;5708;50.660;6.778;2022-11-15T13:56:23;3.95;;;1.95;;
11305;SDS011;5708;50.660;6.778;2022-11-15T13:58:50;3.38;;;1.65;;
11305;SDS011;5708;50.660;6.778;2022-11-15T14:01:18;4.45;;;1.95;;
11305;SDS011;5708;50.660;6.778;2022-11-15T14:03:47;3.83;;;2.08;;
11305;SDS011;5708;50.660;6.778;2022-11-15T14:06:18;6.03;;;2.20;;
11305;SDS011;5708;50.660;6.778;2022-11-15T14:11:36;5.82;;;2.33;;
11305;SDS011;5708;50.660;6.778;2022-11-15T14:16:36;4.43;;;2.40;;
11305;SDS011;5708;50.660;6.778;2022-11-15T14:19:04;4.38;;;2.70;;
11305;SDS011;5708;50.660;6.778;2022-11-15T14:21:30;5.43;;;2.50;;
11305;SDS011;5708;50.660;6.778;2022-11-15T14:24:15;5.55;;;2.53;;
11305;SDS011;5708;50.660;6.778;2022-11-15T14:26:44;6.93;;;2.75;;
11305;SDS011;5708;50.660;6.778;2022-11-15T14:29:23;5.57;;;2.20;;
11305;SDS011;5708;50.660;6.778;2022-11-15T14:34:43;5.75;;;2.80;;
11305;SDS011;5708;50.660;6.778;2022-11-15T14:37:19;5.35;;;2.30;;
11305;SDS011;5708;50.660;6.778;2022-11-15T14:39:48;4.85;;;2.58;;
11305;SDS011;5708;50.660;6.778;2022-11-15T14:42:14;7.07;;;2.53;;
11305;SDS011;5708;50.660;6.778;2022-11-15T14:44:39;3.72;;;2.38;;
11305;SDS011;5708;50.660;6.778;2022-11-15T14:47:05;6.32;;;2.10;;
11305;SDS011;5708;50.660;6.778;2022-11-15T14:49:30;4.80;;;2.20;;
11305;SDS011;5708;50.660;6.778;2022-11-15T14:51:55;5.70;;;3.20;;
11305;SDS011;5708;50.660;6.778;2022-11-15T14:54:21;7.03;;;2.70;;
11305;SDS011;5708;50.660;6.778;2022-11-15T14:56:46;5.05;;;2.50;;
11305;SDS011;5708;50.660;6.778;2022-11-15T14:59:11;5.43;;;2.20;;
11305;SDS011;5708;50.660;6.778;2022-11-15T15:01:36;7.03;;;1.90;;
11305;SDS011;5708;50.660;6.778;2022-11-15T15:04:02;6.30;;;2.50;;
11305;SDS011;5708;50.660;6.778;2022-11-15T15:06:27;4.75;;;2.13;;
11305;SDS011;5708;50.660;6.778;2022-11-15T15:08:52;4.95;;;2.17;;
11305;SDS011;5708;50.660;6.778;2022-11-15T15:11:22;4.53;;;2.00;;
11305;SDS011;5708;50.660;6.778;2022-11-15T15:13:49;7.43;;;1.90;;
11305;SDS011;5708;50.660;6.778;2022-11-15T15:16:15;8.18;;;2.00;;
11305;SDS011;5708;50.660;6.778;2022-11-15T15:18:40;4.43;;;1.85;;
11305;SDS011;5708;50.660;6.778;2022-11-15T15:21:18;5.63;;;1.60;;
11305;SDS011;5708;50.660;6.778;2022-11-15T15:23:46;5.05;;;1.80;;
11305;SDS011;5708;50.660;6.778;2022-11-15T15:26:11;4.20;;;1.85;;
11305;SDS011;5708;50.660;6.778;2022-11-15T15:28:36;5.30;;;1.70;;
11305;SDS011;5708;50.660;6.778;2022-11-15T15:31:03;3.78;;;1.58;;
11305;SDS011;5708;50.660;6.778;2022-11-15T15:33:28;5.18;;;1.65;;
11305;SDS011;5708;50.660;6.778;2022-11-15T15:35:54;4.18;;;1.77;;
11305;SDS011;5708;50.660;6.778;2022-11-15T15:38:19;3.90;;;1.70;;
11305;SDS011;5708;50.660;6.778;2022-11-15T15:40:44;4.18;;;1.70;;
11305;SDS011;5708;50.660;6.778;2022-11-15T15:43:10;5.20;;;1.58;;
11305;SDS011;5708;50.660;6.778;2022-11-15T15:45:38;4.45;;;1.60;;
11305;SDS011;5708;50.660;6.778;2022-11-15T15:48:05;3.25;;;1.45;;
11305;SDS011;5708;50.660;6.778;2022-11-15T15:50:33;3.72;;;1.50;;
11305;SDS011;5708;50.660;6.778;2022-11-15T15:53:00;4.30;;;1.70;;
11305;SDS011;5708;50.660;6.778;2022-11-15T15:55:27;3.33;;;1.33;;
11305;SDS011;5708;50.660;6.778;2022-11-15T15:57:52;3.78;;;1.40;;
11305;SDS011;5708;50.660;6.778;2022-11-15T16:00:18;5.63;;;1.40;;
11305;SDS011;5708;50.660;6.778;2022-11-15T16:02:44;3.47;;;1.33;;
11305;SDS011;5708;50.660;6.778;2022-11-15T16:05:10;3.53;;;1.63;;
11305;SDS011;5708;50.660;6.778;2022-11-15T16:07:36;4.07;;;1.48;;
11305;SDS011;5708;50.660;6.778;2022-11-15T16:10:35;3.10;;;1.40;;
11305;SDS011;5708;50.660;6.778;2022-11-15T16:12:55;3.78;;;1.38;;
11305;SDS011;5708;50.660;6.778;2022-11-15T16:15:21;3.83;;;1.40;;
11305;SDS011;5708;50.660;6.778;2022-11-15T16:17:58;4.40;;;1.33;;
11305;SDS011;5708;50.660;6.778;2022-11-15T16:22:58;4.30;;;1.90;;
11305;SDS011;5708;50.660;6.778;2022-11-15T16:25:24;2.65;;;1.52;;
11305;SDS011;5708;50.660;6.778;2022-11-15T16:27:50;3.97;;;1.50;;
11305;SDS011;5708;50.660;6.778;2022-11-15T16:30:16;4.32;;;1.65;;
11305;SDS011;5708;50.660;6.778;2022-11-15T16:32:43;5.03;;;1.48;;
11305;SDS011;5708;50.660;6.778;2022-11-15T16:35:12;2.67;;;1.40;;
11305;SDS011;5708;50.660;6.778;2022-11-15T16:37:38;3.67;;;1.92;;
11305;SDS011;5708;50.660;6.778;2022-11-15T16:40:21;3.95;;;1.33;;
11305;SDS011;5708;50.660;6.778;2022-11-15T16:42:50;4.25;;;1.40;;
11305;SDS011;5708;50.660;6.778;2022-11-15T16:45:15;2.17;;;1.23;;
11305;SDS011;5708;50.660;6.778;2022-11-15T16:47:40;3.58;;;1.48;;
11305;SDS011;5708;50.660;6.778;2022-11-15T16:50:06;5.28;;;1.52;;
11305;SDS011;5708;50.660;6.778;2022-11-15T16:52:38;3.78;;;1.50;;
11305;SDS011;5708;50.660;6.778;2022-11-15T16:55:04;3.80;;;1.52;;
11305;SDS011;5708;50.660;6.778;2022-11-15T16:57:29;5.22;;;1.70;;